sensor_id;sensor_type;location;lat;lon;timestamp;temperature;humidity
22623;DHT22;11478;51.094;7.030;2023-08-07T00:00:37;12.70;99.90
22623;DHT22;11478;51.094;7.030;2023-08-07T00:03:03;12.70;99.90
22623;DHT22;11478;51.094;7.030;2023-08-07T00:05:37;12.70;99.90
22623;DHT22;11478;51.094;7.030;2023-08-07T00:08:03;12.70;99.90
22623;DHT22;11478;51.094;7.030;2023-08-07T00:10:30;12.70;99.90
22623;DHT22;11478;51.094;7.030;2023-08-07T00:12:55;12.60;99.90
22623;DHT22;11478;51.094;7.030;2023-08-07T00:15:21;12.70;99.90
22623;DHT22;11478;51.094;7.030;2023-08-07T00:17:47;12.70;99.90
22623;DHT22;11478;51.094;7.030;2023-08-07T00:20:13;12.70;99.90
22623;DHT22;11478;51.094;7.030;2023-08-07T00:22:43;12.70;99.90
22623;DHT22;11478;51.094;7.030;2023-08-07T00:25:09;12.70;99.90
22623;DHT22;11478;51.094;7.030;2023-08-07T00:27:42;12.70;99.90
22623;DHT22;11478;51.094;7.030;2023-08-07T00:30:09;12.60;99.90
22623;DHT22;11478;51.094;7.030;2023-08-07T00:32:39;12.60;99.90
22623;DHT22;11478;51.094;7.030;2023-08-07T00:35:05;12.70;99.90
22623;DHT22;11478;51.094;7.030;2023-08-07T00:37:32;12.60;99.90
22623;DHT22;11478;51.094;7.030;2023-08-07T00:39:58;12.60;99.90
22623;DHT22;11478;51.094;7.030;2023-08-07T00:42:24;12.60;99.90
22623;DHT22;11478;51.094;7.030;2023-08-07T00:44:50;12.60;99.90
22623;DHT22;11478;51.094;7.030;2023-08-07T00:47:16;12.60;99.90
22623;DHT22;11478;51.094;7.030;2023-08-07T00:49:42;12.60;99.90
22623;DHT22;11478;51.094;7.030;2023-08-07T00:52:14;12.60;99.90
22623;DHT22;11478;51.094;7.030;2023-08-07T00:54:40;12.60;99.90
22623;DHT22;11478;51.094;7.030;2023-08-07T00:57:11;12.60;99.90
22623;DHT22;11478;51.094;7.030;2023-08-07T00:59:41;12.60;99.90
22623;DHT22;11478;51.094;7.030;2023-08-07T01:02:12;12.60;99.90
22623;DHT22;11478;51.094;7.030;2023-08-07T01:04:38;12.60;99.90
22623;DHT22;11478;51.094;7.030;2023-08-07T01:07:07;12.60;99.90
22623;DHT22;11478;51.094;7.030;2023-08-07T01:09:33;12.60;99.90
22623;DHT22;11478;51.094;7.030;2023-08-07T01:12:25;12.60;99.90
22623;DHT22;11478;51.094;7.030;2023-08-07T01:15:16;12.60;99.90
22623;DHT22;11478;51.094;7.030;2023-08-07T01:17:54;12.60;99.90
22623;DHT22;11478;51.094;7.030;2023-08-07T01:20:20;12.60;99.90
22623;DHT22;11478;51.094;7.030;2023-08-07T01:22:50;12.60;99.90
22623;DHT22;11478;51.094;7.030;2023-08-07T01:25:16;12.60;99.90
22623;DHT22;11478;51.094;7.030;2023-08-07T01:31:08;12.50;99.90
22623;DHT22;11478;51.094;7.030;2023-08-07T01:34:01;12.50;99.90
22623;DHT22;11478;51.094;7.030;2023-08-07T01:36:39;12.50;99.90
22623;DHT22;11478;51.094;7.030;2023-08-07T01:39:06;12.50;99.90
22623;DHT22;11478;51.094;7.030;2023-08-07T01:41:40;12.50;99.90
22623;DHT22;11478;51.094;7.030;2023-08-07T01:44:06;12.50;99.90
22623;DHT22;11478;51.094;7.030;2023-08-07T01:46:33;12.50;99.90
22623;DHT22;11478;51.094;7.030;2023-08-07T01:48:59;12.50;99.90
22623;DHT22;11478;51.094;7.030;2023-08-07T01:51:25;12.50;99.90
22623;DHT22;11478;51.094;7.030;2023-08-07T01:53:51;12.50;99.90
22623;DHT22;11478;51.094;7.030;2023-08-07T01:56:19;12.50;99.90
22623;DHT22;11478;51.094;7.030;2023-08-07T01:58:48;12.50;99.90
22623;DHT22;11478;51.094;7.030;2023-08-07T02:01:14;12.50;99.90
22623;DHT22;11478;51.094;7.030;2023-08-07T02:03:40;12.40;99.90
22623;DHT22;11478;51.094;7.030;2023-08-07T02:06:11;12.50;99.90
22623;DHT22;11478;51.094;7.030;2023-08-07T02:08:36;12.40;99.90
22623;DHT22;11478;51.094;7.030;2023-08-07T02:11:04;12.40;99.90
22623;DHT22;11478;51.094;7.030;2023-08-07T02:13:30;12.40;99.90
22623;DHT22;11478;51.094;7.030;2023-08-07T02:16:10;12.40;99.90
22623;DHT22;11478;51.094;7.030;2023-08-07T02:18:36;12.40;99.90
22623;DHT22;11478;51.094;7.030;2023-08-07T02:21:06;12.40;99.90
22623;DHT22;11478;51.094;7.030;2023-08-07T02:23:32;12.40;99.90
22623;DHT22;11478;51.094;7.030;2023-08-07T02:25:58;12.30;99.90
22623;DHT22;11478;51.094;7.030;2023-08-07T02:28:23;12.40;99.90
22623;DHT22;11478;51.094;7.030;2023-08-07T02:30:50;12.40;99.90
22623;DHT22;11478;51.094;7.030;2023-08-07T02:33:24;12.30;99.90
22623;DHT22;11478;51.094;7.030;2023-08-07T02:35:57;12.30;99.90
22623;DHT22;11478;51.094;7.030;2023-08-07T02:38:25;12.30;99.90
22623;DHT22;11478;51.094;7.030;2023-08-07T02:40:51;12.30;99.90
22623;DHT22;11478;51.094;7.030;2023-08-07T02:43:18;12.30;99.90
22623;DHT22;11478;51.094;7.030;2023-08-07T02:45:51;12.20;99.90
22623;DHT22;11478;51.094;7.030;2023-08-07T02:48:40;12.30;99.90
22623;DHT22;11478;51.094;7.030;2023-08-07T02:51:06;12.30;99.90
22623;DHT22;11478;51.094;7.030;2023-08-07T02:53:33;12.20;99.90
22623;DHT22;11478;51.094;7.030;2023-08-07T02:55:59;12.20;99.90
22623;DHT22;11478;51.094;7.030;2023-08-07T02:58:25;12.20;99.90
22623;DHT22;11478;51.094;7.030;2023-08-07T03:00:51;12.20;99.90
22623;DHT22;11478;51.094;7.030;2023-08-07T03:03:24;12.20;99.90
22623;DHT22;11478;51.094;7.030;2023-08-07T03:05:51;12.20;99.90
22623;DHT22;11478;51.094;7.030;2023-08-07T03:08:23;12.20;99.90
22623;DHT22;11478;51.094;7.030;2023-08-07T03:10:53;12.20;99.90
22623;DHT22;11478;51.094;7.030;2023-08-07T03:13:31;12.20;99.90
22623;DHT22;11478;51.094;7.030;2023-08-07T03:16:05;12.20;99.90
22623;DHT22;11478;51.094;7.030;2023-08-07T03:18:31;12.20;99.90
22623;DHT22;11478;51.094;7.030;2023-08-07T03:21:07;12.20;99.90
22623;DHT22;11478;51.094;7.030;2023-08-07T03:23:41;12.20;99.90
22623;DHT22;11478;51.094;7.030;2023-08-07T03:26:10;12.20;99.90
22623;DHT22;11478;51.094;7.030;2023-08-07T03:28:37;12.20;99.90
22623;DHT22;11478;51.094;7.030;2023-08-07T03:31:03;12.20;99.90
22623;DHT22;11478;51.094;7.030;2023-08-07T03:33:42;12.20;99.90
22623;DHT22;11478;51.094;7.030;2023-08-07T03:36:08;12.20;99.90
22623;DHT22;11478;51.094;7.030;2023-08-07T03:38:38;12.30;99.90
22623;DHT22;11478;51.094;7.030;2023-08-07T03:41:04;12.20;99.90
22623;DHT22;11478;51.094;7.030;2023-08-07T03:43:34;12.30;99.90
22623;DHT22;11478;51.094;7.030;2023-08-07T03:46:05;12.20;99.90
22623;DHT22;11478;51.094;7.030;2023-08-07T03:48:38;12.20;99.90
22623;DHT22;11478;51.094;7.030;2023-08-07T03:51:05;12.20;99.90
22623;DHT22;11478;51.094;7.030;2023-08-07T03:53:34;12.20;99.90
22623;DHT22;11478;51.094;7.030;2023-08-07T03:56:00;12.20;99.90
22623;DHT22;11478;51.094;7.030;2023-08-07T03:58:26;12.20;99.90
22623;DHT22;11478;51.094;7.030;2023-08-07T04:00:52;12.20;99.90
22623;DHT22;11478;51.094;7.030;2023-08-07T04:03:21;12.20;99.90
22623;DHT22;11478;51.094;7.030;2023-08-07T04:05:51;12.20;99.90
22623;DHT22;11478;51.094;7.030;2023-08-07T04:08:26;12.10;99.90
22623;DHT22;11478;51.094;7.030;2023-08-07T04:11:03;12.10;99.90
22623;DHT22;11478;51.094;7.030;2023-08-07T04:13:43;12.10;99.90
22623;DHT22;11478;51.094;7.030;2023-08-07T04:16:09;12.10;99.90
22623;DHT22;11478;51.094;7.030;2023-08-07T04:18:38;12.10;99.90
22623;DHT22;11478;51.094;7.030;2023-08-07T04:21:03;12.10;99.90
22623;DHT22;11478;51.094;7.030;2023-08-07T04:23:29;12.10;99.90
22623;DHT22;11478;51.094;7.030;2023-08-07T04:25:57;12.10;99.90
22623;DHT22;11478;51.094;7.030;2023-08-07T04:28:30;12.20;99.90
22623;DHT22;11478;51.094;7.030;2023-08-07T04:30:56;12.10;99.90
22623;DHT22;11478;51.094;7.030;2023-08-07T04:33:24;12.20;99.90
22623;DHT22;11478;51.094;7.030;2023-08-07T04:35:50;12.10;99.90
22623;DHT22;11478;51.094;7.030;2023-08-07T04:38:19;12.10;99.90
22623;DHT22;11478;51.094;7.030;2023-08-07T04:40:49;12.10;99.90
22623;DHT22;11478;51.094;7.030;2023-08-07T04:43:17;12.20;99.90
22623;DHT22;11478;51.094;7.030;2023-08-07T04:45:45;12.10;99.90
22623;DHT22;11478;51.094;7.030;2023-08-07T04:48:15;12.20;99.90
22623;DHT22;11478;51.094;7.030;2023-08-07T04:50:43;12.10;99.90
22623;DHT22;11478;51.094;7.030;2023-08-07T04:53:09;12.20;99.90
22623;DHT22;11478;51.094;7.030;2023-08-07T04:55:35;12.20;99.90
22623;DHT22;11478;51.094;7.030;2023-08-07T04:58:02;12.20;99.90
22623;DHT22;11478;51.094;7.030;2023-08-07T05:00:28;12.10;99.90
22623;DHT22;11478;51.094;7.030;2023-08-07T05:02:56;12.10;99.90
22623;DHT22;11478;51.094;7.030;2023-08-07T05:05:31;12.20;99.90
22623;DHT22;11478;51.094;7.030;2023-08-07T05:08:02;12.20;99.90
22623;DHT22;11478;51.094;7.030;2023-08-07T05:10:28;12.20;99.90
22623;DHT22;11478;51.094;7.030;2023-08-07T05:12:54;12.10;99.90
22623;DHT22;11478;51.094;7.030;2023-08-07T05:15:24;12.20;99.90
22623;DHT22;11478;51.094;7.030;2023-08-07T05:17:51;12.20;99.90
22623;DHT22;11478;51.094;7.030;2023-08-07T05:20:22;12.20;99.90
22623;DHT22;11478;51.094;7.030;2023-08-07T05:22:48;12.20;99.90
22623;DHT22;11478;51.094;7.030;2023-08-07T05:25:21;12.20;99.90
22623;DHT22;11478;51.094;7.030;2023-08-07T05:27:52;12.20;99.90
22623;DHT22;11478;51.094;7.030;2023-08-07T05:30:24;12.10;99.90
22623;DHT22;11478;51.094;7.030;2023-08-07T05:32:50;12.20;99.90
22623;DHT22;11478;51.094;7.030;2023-08-07T05:35:20;12.20;99.90
22623;DHT22;11478;51.094;7.030;2023-08-07T05:37:46;12.20;99.90
22623;DHT22;11478;51.094;7.030;2023-08-07T05:40:12;12.20;99.90
22623;DHT22;11478;51.094;7.030;2023-08-07T05:42:39;12.20;99.90
22623;DHT22;11478;51.094;7.030;2023-08-07T05:45:06;12.20;99.90
22623;DHT22;11478;51.094;7.030;2023-08-07T05:47:33;12.20;99.90
22623;DHT22;11478;51.094;7.030;2023-08-07T05:49:59;12.20;99.90
22623;DHT22;11478;51.094;7.030;2023-08-07T05:52:25;12.20;99.90
22623;DHT22;11478;51.094;7.030;2023-08-07T05:54:52;12.20;99.90
22623;DHT22;11478;51.094;7.030;2023-08-07T05:57:18;12.20;99.90
22623;DHT22;11478;51.094;7.030;2023-08-07T05:59:45;12.20;99.90
22623;DHT22;11478;51.094;7.030;2023-08-07T06:02:11;12.20;99.90
22623;DHT22;11478;51.094;7.030;2023-08-07T06:04:39;12.20;99.90
22623;DHT22;11478;51.094;7.030;2023-08-07T06:07:06;12.20;99.90
22623;DHT22;11478;51.094;7.030;2023-08-07T06:09:33;12.20;99.90
22623;DHT22;11478;51.094;7.030;2023-08-07T06:11:59;12.20;99.90
22623;DHT22;11478;51.094;7.030;2023-08-07T06:14:25;12.20;99.90
22623;DHT22;11478;51.094;7.030;2023-08-07T06:16:52;12.20;99.90
22623;DHT22;11478;51.094;7.030;2023-08-07T06:19:26;12.20;99.90
22623;DHT22;11478;51.094;7.030;2023-08-07T06:21:56;12.20;99.90
22623;DHT22;11478;51.094;7.030;2023-08-07T06:24:22;12.20;99.90
22623;DHT22;11478;51.094;7.030;2023-08-07T06:26:49;12.20;99.90
22623;DHT22;11478;51.094;7.030;2023-08-07T06:29:19;12.20;99.90
22623;DHT22;11478;51.094;7.030;2023-08-07T06:31:45;12.20;99.90
22623;DHT22;11478;51.094;7.030;2023-08-07T06:34:12;12.20;99.90
22623;DHT22;11478;51.094;7.030;2023-08-07T06:36:39;12.20;99.90
22623;DHT22;11478;51.094;7.030;2023-08-07T06:39:05;12.10;99.90
22623;DHT22;11478;51.094;7.030;2023-08-07T06:41:37;12.10;99.90
22623;DHT22;11478;51.094;7.030;2023-08-07T06:44:03;12.10;99.90
22623;DHT22;11478;51.094;7.030;2023-08-07T06:46:30;12.10;99.90
22623;DHT22;11478;51.094;7.030;2023-08-07T06:48:59;12.10;99.90
22623;DHT22;11478;51.094;7.030;2023-08-07T06:51:29;12.10;99.90
22623;DHT22;11478;51.094;7.030;2023-08-07T06:54:05;12.10;99.90
22623;DHT22;11478;51.094;7.030;2023-08-07T06:56:31;12.10;99.90
22623;DHT22;11478;51.094;7.030;2023-08-07T06:59:02;12.10;99.90
22623;DHT22;11478;51.094;7.030;2023-08-07T07:01:28;12.10;99.90
22623;DHT22;11478;51.094;7.030;2023-08-07T07:09:03;12.10;99.90
22623;DHT22;11478;51.094;7.030;2023-08-07T07:11:29;12.20;99.90
22623;DHT22;11478;51.094;7.030;2023-08-07T07:14:02;12.20;99.90
22623;DHT22;11478;51.094;7.030;2023-08-07T07:16:27;12.20;99.90
22623;DHT22;11478;51.094;7.030;2023-08-07T07:18:54;12.20;99.90
22623;DHT22;11478;51.094;7.030;2023-08-07T07:21:28;12.20;99.90
22623;DHT22;11478;51.094;7.030;2023-08-07T07:24:03;12.20;99.90
22623;DHT22;11478;51.094;7.030;2023-08-07T07:26:29;12.20;99.90
22623;DHT22;11478;51.094;7.030;2023-08-07T07:28:59;12.20;99.90
22623;DHT22;11478;51.094;7.030;2023-08-07T07:31:25;12.20;99.90
22623;DHT22;11478;51.094;7.030;2023-08-07T07:34:14;12.20;99.90
22623;DHT22;11478;51.094;7.030;2023-08-07T07:36:41;12.20;99.90
22623;DHT22;11478;51.094;7.030;2023-08-07T07:39:07;12.20;99.90
22623;DHT22;11478;51.094;7.030;2023-08-07T07:41:35;12.20;99.90
22623;DHT22;11478;51.094;7.030;2023-08-07T07:44:05;12.30;99.90
22623;DHT22;11478;51.094;7.030;2023-08-07T07:46:37;12.30;99.90
22623;DHT22;11478;51.094;7.030;2023-08-07T07:49:03;12.30;99.90
22623;DHT22;11478;51.094;7.030;2023-08-07T07:51:32;12.30;99.90
22623;DHT22;11478;51.094;7.030;2023-08-07T07:54:00;12.30;99.90
22623;DHT22;11478;51.094;7.030;2023-08-07T07:56:26;12.30;99.90
22623;DHT22;11478;51.094;7.030;2023-08-07T07:58:54;12.30;99.90
22623;DHT22;11478;51.094;7.030;2023-08-07T08:01:23;12.30;99.90
22623;DHT22;11478;51.094;7.030;2023-08-07T08:03:49;12.30;99.90
22623;DHT22;11478;51.094;7.030;2023-08-07T08:06:18;12.30;99.90
22623;DHT22;11478;51.094;7.030;2023-08-07T08:08:44;12.40;99.90
22623;DHT22;11478;51.094;7.030;2023-08-07T08:11:11;12.40;99.90
22623;DHT22;11478;51.094;7.030;2023-08-07T08:13:37;12.40;99.90
22623;DHT22;11478;51.094;7.030;2023-08-07T08:16:05;12.40;99.90
22623;DHT22;11478;51.094;7.030;2023-08-07T08:18:31;12.40;99.90
22623;DHT22;11478;51.094;7.030;2023-08-07T08:21:09;12.40;99.90
22623;DHT22;11478;51.094;7.030;2023-08-07T08:23:38;12.40;99.90
22623;DHT22;11478;51.094;7.030;2023-08-07T08:26:16;12.40;99.90
22623;DHT22;11478;51.094;7.030;2023-08-07T08:28:42;12.40;99.90
22623;DHT22;11478;51.094;7.030;2023-08-07T08:31:12;12.40;99.90
22623;DHT22;11478;51.094;7.030;2023-08-07T08:33:38;12.50;99.90
22623;DHT22;11478;51.094;7.030;2023-08-07T08:36:05;12.50;99.90
22623;DHT22;11478;51.094;7.030;2023-08-07T08:38:34;12.50;99.90
22623;DHT22;11478;51.094;7.030;2023-08-07T08:41:07;12.50;99.90
22623;DHT22;11478;51.094;7.030;2023-08-07T08:43:35;12.50;99.90
22623;DHT22;11478;51.094;7.030;2023-08-07T08:46:05;12.50;99.90
22623;DHT22;11478;51.094;7.030;2023-08-07T08:48:38;12.50;99.90
22623;DHT22;11478;51.094;7.030;2023-08-07T08:51:09;12.60;99.90
22623;DHT22;11478;51.094;7.030;2023-08-07T08:57:56;12.60;99.90
22623;DHT22;11478;51.094;7.030;2023-08-07T09:00:11;12.70;99.90
22623;DHT22;11478;51.094;7.030;2023-08-07T09:03:11;12.70;99.90
22623;DHT22;11478;51.094;7.030;2023-08-07T09:05:46;12.70;99.90
22623;DHT22;11478;51.094;7.030;2023-08-07T09:08:24;12.80;99.90
22623;DHT22;11478;51.094;7.030;2023-08-07T09:10:53;12.90;99.90
22623;DHT22;11478;51.094;7.030;2023-08-07T09:13:23;12.90;99.90
22623;DHT22;11478;51.094;7.030;2023-08-07T09:15:53;12.90;99.90
22623;DHT22;11478;51.094;7.030;2023-08-07T09:18:23;12.90;99.90
22623;DHT22;11478;51.094;7.030;2023-08-07T09:21:08;12.80;99.90
22623;DHT22;11478;51.094;7.030;2023-08-07T09:23:42;12.80;99.90
22623;DHT22;11478;51.094;7.030;2023-08-07T09:26:21;12.80;99.90
22623;DHT22;11478;51.094;7.030;2023-08-07T09:28:51;12.80;99.90
22623;DHT22;11478;51.094;7.030;2023-08-07T09:31:20;12.90;99.90
22623;DHT22;11478;51.094;7.030;2023-08-07T09:33:47;13.00;99.90
22623;DHT22;11478;51.094;7.030;2023-08-07T09:36:26;13.10;99.90
22623;DHT22;11478;51.094;7.030;2023-08-07T09:38:55;13.20;99.90
22623;DHT22;11478;51.094;7.030;2023-08-07T09:41:26;13.30;99.90
22623;DHT22;11478;51.094;7.030;2023-08-07T09:43:59;13.40;99.90
22623;DHT22;11478;51.094;7.030;2023-08-07T09:46:44;13.50;99.90
22623;DHT22;11478;51.094;7.030;2023-08-07T09:49:37;13.60;99.90
22623;DHT22;11478;51.094;7.030;2023-08-07T09:52:06;13.70;99.90
22623;DHT22;11478;51.094;7.030;2023-08-07T09:54:34;13.70;99.90
22623;DHT22;11478;51.094;7.030;2023-08-07T09:57:13;13.70;99.90
22623;DHT22;11478;51.094;7.030;2023-08-07T09:59:41;13.70;99.90
22623;DHT22;11478;51.094;7.030;2023-08-07T10:02:09;13.70;99.90
22623;DHT22;11478;51.094;7.030;2023-08-07T10:04:37;13.70;99.90
22623;DHT22;11478;51.094;7.030;2023-08-07T10:07:18;13.80;99.90
22623;DHT22;11478;51.094;7.030;2023-08-07T10:09:54;13.80;99.90
22623;DHT22;11478;51.094;7.030;2023-08-07T10:12:23;13.90;99.90
22623;DHT22;11478;51.094;7.030;2023-08-07T10:14:59;14.00;99.90
22623;DHT22;11478;51.094;7.030;2023-08-07T10:17:29;14.00;99.90
22623;DHT22;11478;51.094;7.030;2023-08-07T10:20:00;14.00;99.90
22623;DHT22;11478;51.094;7.030;2023-08-07T10:22:29;14.00;99.90
22623;DHT22;11478;51.094;7.030;2023-08-07T10:25:00;14.00;99.90
22623;DHT22;11478;51.094;7.030;2023-08-07T10:27:27;14.00;99.90
22623;DHT22;11478;51.094;7.030;2023-08-07T10:29:56;13.90;99.90
22623;DHT22;11478;51.094;7.030;2023-08-07T10:32:26;13.90;99.90
22623;DHT22;11478;51.094;7.030;2023-08-07T10:34:55;14.00;99.90
22623;DHT22;11478;51.094;7.030;2023-08-07T10:37:40;14.00;99.90
22623;DHT22;11478;51.094;7.030;2023-08-07T10:40:13;14.00;99.90
22623;DHT22;11478;51.094;7.030;2023-08-07T10:45:22;14.20;99.90
22623;DHT22;11478;51.094;7.030;2023-08-07T10:53:53;14.30;99.90
22623;DHT22;11478;51.094;7.030;2023-08-07T10:56:33;14.40;99.90
22623;DHT22;11478;51.094;7.030;2023-08-07T10:59:09;14.50;99.90
22623;DHT22;11478;51.094;7.030;2023-08-07T11:01:43;14.50;99.90
22623;DHT22;11478;51.094;7.030;2023-08-07T11:04:16;14.60;99.90
22623;DHT22;11478;51.094;7.030;2023-08-07T11:06:46;14.60;99.90
22623;DHT22;11478;51.094;7.030;2023-08-07T11:09:12;14.70;99.90
22623;DHT22;11478;51.094;7.030;2023-08-07T11:11:46;14.70;99.90
22623;DHT22;11478;51.094;7.030;2023-08-07T11:14:26;14.70;99.90
22623;DHT22;11478;51.094;7.030;2023-08-07T11:16:52;14.80;99.90
22623;DHT22;11478;51.094;7.030;2023-08-07T11:19:25;14.90;99.90
22623;DHT22;11478;51.094;7.030;2023-08-07T11:21:51;14.90;99.90
22623;DHT22;11478;51.094;7.030;2023-08-07T11:24:17;14.80;99.90
22623;DHT22;11478;51.094;7.030;2023-08-07T11:26:45;14.90;99.90
22623;DHT22;11478;51.094;7.030;2023-08-07T11:29:16;14.80;99.90
22623;DHT22;11478;51.094;7.030;2023-08-07T11:31:57;14.90;99.90
22623;DHT22;11478;51.094;7.030;2023-08-07T11:34:23;14.90;99.90
22623;DHT22;11478;51.094;7.030;2023-08-07T11:36:51;14.90;99.90
22623;DHT22;11478;51.094;7.030;2023-08-07T11:39:17;15.10;99.90
22623;DHT22;11478;51.094;7.030;2023-08-07T11:41:47;15.10;99.90
22623;DHT22;11478;51.094;7.030;2023-08-07T11:44:13;15.30;99.90
22623;DHT22;11478;51.094;7.030;2023-08-07T11:46:43;15.40;99.90
22623;DHT22;11478;51.094;7.030;2023-08-07T11:49:09;15.50;99.90
22623;DHT22;11478;51.094;7.030;2023-08-07T11:51:42;15.60;99.90
22623;DHT22;11478;51.094;7.030;2023-08-07T11:54:14;15.60;99.90
22623;DHT22;11478;51.094;7.030;2023-08-07T11:56:48;15.70;99.90
22623;DHT22;11478;51.094;7.030;2023-08-07T11:59:16;15.80;99.90
22623;DHT22;11478;51.094;7.030;2023-08-07T12:01:50;15.70;99.90
22623;DHT22;11478;51.094;7.030;2023-08-07T12:04:21;15.60;99.90
22623;DHT22;11478;51.094;7.030;2023-08-07T12:06:54;15.60;99.90
22623;DHT22;11478;51.094;7.030;2023-08-07T12:09:30;15.60;99.90
22623;DHT22;11478;51.094;7.030;2023-08-07T12:11:57;15.50;99.90
22623;DHT22;11478;51.094;7.030;2023-08-07T12:14:52;15.50;99.90
22623;DHT22;11478;51.094;7.030;2023-08-07T12:17:21;15.50;99.90
22623;DHT22;11478;51.094;7.030;2023-08-07T12:19:50;15.50;99.90
22623;DHT22;11478;51.094;7.030;2023-08-07T12:22:19;15.50;99.90
22623;DHT22;11478;51.094;7.030;2023-08-07T12:24:49;15.50;99.90
22623;DHT22;11478;51.094;7.030;2023-08-07T12:27:15;15.60;99.90
22623;DHT22;11478;51.094;7.030;2023-08-07T12:29:45;15.50;99.90
22623;DHT22;11478;51.094;7.030;2023-08-07T12:32:14;15.50;99.90
22623;DHT22;11478;51.094;7.030;2023-08-07T12:34:55;15.40;99.90
22623;DHT22;11478;51.094;7.030;2023-08-07T12:37:21;15.40;99.90
22623;DHT22;11478;51.094;7.030;2023-08-07T12:39:51;15.40;99.90
22623;DHT22;11478;51.094;7.030;2023-08-07T12:42:17;15.40;99.90
22623;DHT22;11478;51.094;7.030;2023-08-07T12:44:43;15.50;99.90
22623;DHT22;11478;51.094;7.030;2023-08-07T12:47:12;15.60;99.90
22623;DHT22;11478;51.094;7.030;2023-08-07T12:49:46;15.80;99.90
22623;DHT22;11478;51.094;7.030;2023-08-07T12:52:16;16.00;99.90
22623;DHT22;11478;51.094;7.030;2023-08-07T12:54:48;16.10;99.90
22623;DHT22;11478;51.094;7.030;2023-08-07T12:57:14;16.10;99.90
22623;DHT22;11478;51.094;7.030;2023-08-07T12:59:54;16.20;99.90
22623;DHT22;11478;51.094;7.030;2023-08-07T13:02:20;16.30;99.90
22623;DHT22;11478;51.094;7.030;2023-08-07T13:04:53;16.30;99.90
22623;DHT22;11478;51.094;7.030;2023-08-07T13:07:20;16.50;99.90
22623;DHT22;11478;51.094;7.030;2023-08-07T13:09:46;16.50;99.90
22623;DHT22;11478;51.094;7.030;2023-08-07T13:12:12;16.50;99.90
22623;DHT22;11478;51.094;7.030;2023-08-07T13:14:49;16.40;99.90
22623;DHT22;11478;51.094;7.030;2023-08-07T13:17:18;16.30;99.90
22623;DHT22;11478;51.094;7.030;2023-08-07T13:19:46;16.40;99.90
22623;DHT22;11478;51.094;7.030;2023-08-07T13:22:15;16.40;99.90
22623;DHT22;11478;51.094;7.030;2023-08-07T13:24:50;16.40;99.90
22623;DHT22;11478;51.094;7.030;2023-08-07T13:27:16;16.30;99.90
22623;DHT22;11478;51.094;7.030;2023-08-07T13:29:58;16.30;99.90
22623;DHT22;11478;51.094;7.030;2023-08-07T13:32:26;16.40;99.90
22623;DHT22;11478;51.094;7.030;2023-08-07T13:34:52;16.40;99.90
22623;DHT22;11478;51.094;7.030;2023-08-07T13:37:21;16.40;99.90
22623;DHT22;11478;51.094;7.030;2023-08-07T13:40:24;16.60;99.90
22623;DHT22;11478;51.094;7.030;2023-08-07T13:42:53;16.60;99.90
22623;DHT22;11478;51.094;7.030;2023-08-07T13:45:30;16.80;99.90
22623;DHT22;11478;51.094;7.030;2023-08-07T13:47:56;16.90;99.90
22623;DHT22;11478;51.094;7.030;2023-08-07T13:50:22;16.80;99.90
22623;DHT22;11478;51.094;7.030;2023-08-07T13:52:50;16.90;99.90
22623;DHT22;11478;51.094;7.030;2023-08-07T13:55:22;16.90;99.90
22623;DHT22;11478;51.094;7.030;2023-08-07T13:57:55;16.90;99.90
22623;DHT22;11478;51.094;7.030;2023-08-07T14:00:29;16.90;99.90
22623;DHT22;11478;51.094;7.030;2023-08-07T14:02:55;16.90;99.90
22623;DHT22;11478;51.094;7.030;2023-08-07T14:05:34;16.80;99.90
22623;DHT22;11478;51.094;7.030;2023-08-07T14:08:00;16.60;99.90
22623;DHT22;11478;51.094;7.030;2023-08-07T14:10:26;16.60;99.90
22623;DHT22;11478;51.094;7.030;2023-08-07T14:12:55;16.70;99.90
22623;DHT22;11478;51.094;7.030;2023-08-07T14:15:24;16.90;99.90
22623;DHT22;11478;51.094;7.030;2023-08-07T14:17:50;17.00;99.90
22623;DHT22;11478;51.094;7.030;2023-08-07T14:20:39;17.10;99.90
22623;DHT22;11478;51.094;7.030;2023-08-07T14:23:08;17.20;99.90
22623;DHT22;11478;51.094;7.030;2023-08-07T14:25:53;17.20;99.90
22623;DHT22;11478;51.094;7.030;2023-08-07T14:28:22;17.30;99.90
22623;DHT22;11478;51.094;7.030;2023-08-07T14:30:50;17.30;99.90
22623;DHT22;11478;51.094;7.030;2023-08-07T14:33:23;17.20;99.90
22623;DHT22;11478;51.094;7.030;2023-08-07T14:35:54;17.00;99.90
22623;DHT22;11478;51.094;7.030;2023-08-07T14:38:20;16.90;99.90
22623;DHT22;11478;51.094;7.030;2023-08-07T14:40:54;16.80;99.90
22623;DHT22;11478;51.094;7.030;2023-08-07T14:43:23;16.70;99.90
22623;DHT22;11478;51.094;7.030;2023-08-07T14:46:05;16.60;99.90
22623;DHT22;11478;51.094;7.030;2023-08-07T14:48:34;16.50;99.90
22623;DHT22;11478;51.094;7.030;2023-08-07T14:51:03;16.60;99.90
22623;DHT22;11478;51.094;7.030;2023-08-07T14:53:29;16.60;99.90
22623;DHT22;11478;51.094;7.030;2023-08-07T14:56:01;16.70;99.90
22623;DHT22;11478;51.094;7.030;2023-08-07T14:58:30;16.80;99.90
22623;DHT22;11478;51.094;7.030;2023-08-07T15:00:58;16.90;99.90
22623;DHT22;11478;51.094;7.030;2023-08-07T15:03:24;17.00;99.90
22623;DHT22;11478;51.094;7.030;2023-08-07T15:05:56;17.00;99.90
22623;DHT22;11478;51.094;7.030;2023-08-07T15:08:23;16.90;99.90
22623;DHT22;11478;51.094;7.030;2023-08-07T15:11:03;16.90;99.90
22623;DHT22;11478;51.094;7.030;2023-08-07T15:13:31;16.90;99.90
22623;DHT22;11478;51.094;7.030;2023-08-07T15:15:59;16.90;99.90
22623;DHT22;11478;51.094;7.030;2023-08-07T15:18:25;17.00;99.90
22623;DHT22;11478;51.094;7.030;2023-08-07T15:20:51;17.00;99.90
22623;DHT22;11478;51.094;7.030;2023-08-07T15:23:20;17.10;99.90
22623;DHT22;11478;51.094;7.030;2023-08-07T15:25:49;17.10;99.90
22623;DHT22;11478;51.094;7.030;2023-08-07T15:28:29;17.10;99.90
22623;DHT22;11478;51.094;7.030;2023-08-07T15:30:55;17.10;99.90
22623;DHT22;11478;51.094;7.030;2023-08-07T15:33:22;17.00;99.90
22623;DHT22;11478;51.094;7.030;2023-08-07T15:35:53;16.90;99.90
22623;DHT22;11478;51.094;7.030;2023-08-07T15:38:21;16.80;99.90
22623;DHT22;11478;51.094;7.030;2023-08-07T15:40:53;16.80;99.90
22623;DHT22;11478;51.094;7.030;2023-08-07T15:43:22;16.70;99.90
22623;DHT22;11478;51.094;7.030;2023-08-07T15:45:54;16.60;99.90
22623;DHT22;11478;51.094;7.030;2023-08-07T15:48:25;16.60;99.90
22623;DHT22;11478;51.094;7.030;2023-08-07T15:50:51;16.70;99.90
22623;DHT22;11478;51.094;7.030;2023-08-07T15:53:32;16.80;99.90
22623;DHT22;11478;51.094;7.030;2023-08-07T15:58:38;17.10;99.90
22623;DHT22;11478;51.094;7.030;2023-08-07T16:01:04;17.30;99.90
22623;DHT22;11478;51.094;7.030;2023-08-07T16:03:32;17.50;99.90
22623;DHT22;11478;51.094;7.030;2023-08-07T16:06:01;17.70;99.90
22623;DHT22;11478;51.094;7.030;2023-08-07T16:08:37;17.90;99.90
22623;DHT22;11478;51.094;7.030;2023-08-07T16:11:03;18.00;99.90